createdAt,value
2022-10-20T00:00:25.398Z,5.20
2022-10-20T00:03:04.465Z,5.00
2022-10-20T00:05:33.558Z,6.23
2022-10-20T00:08:01.974Z,5.10
2022-10-20T00:10:37.343Z,7.23
2022-10-20T00:13:07.799Z,5.50
2022-10-20T00:15:37.929Z,5.30
2022-10-20T00:18:07.522Z,5.70
2022-10-20T00:20:35.926Z,5.33
2022-10-20T00:23:06.691Z,4.63
2022-10-20T00:25:41.516Z,5.20
2022-10-20T00:28:09.519Z,4.37
2022-10-20T00:30:41.149Z,6.60
2022-10-20T00:33:10.937Z,5.70
2022-10-20T00:35:42.396Z,6.17
2022-10-20T00:38:10.840Z,6.70
2022-10-20T00:40:38.841Z,4.93
2022-10-20T00:43:11.389Z,5.40
2022-10-20T00:45:39.755Z,4.70
2022-10-20T00:48:15.271Z,5.13
2022-10-20T00:50:51.235Z,5.70
2022-10-20T00:53:20.303Z,6.87
2022-10-20T00:55:51.715Z,5.63
2022-10-20T00:58:20.403Z,5.63
2022-10-20T01:00:54.636Z,5.53
2022-10-20T01:03:29.227Z,4.93
2022-10-20T01:06:00.053Z,5.53
2022-10-20T01:08:30.316Z,5.47
2022-10-20T01:11:08.232Z,6.17
2022-10-20T01:13:46.536Z,5.53
2022-10-20T01:16:30.529Z,6.40
2022-10-20T01:19:08.836Z,5.60
2022-10-20T01:21:55.227Z,5.60
2022-10-20T01:24:47.240Z,5.30
2022-10-20T01:27:32.437Z,5.80
2022-10-20T01:30:09.386Z,6.30
2022-10-20T01:32:48.704Z,5.47
2022-10-20T01:35:26.691Z,6.60
2022-10-20T01:38:02.862Z,5.83
2022-10-20T01:40:38.581Z,6.77
2022-10-20T01:43:12.902Z,7.83
2022-10-20T01:45:48.819Z,6.87
2022-10-20T01:48:22.711Z,6.10
2022-10-20T01:50:51.647Z,6.40
2022-10-20T01:53:21.634Z,6.17
2022-10-20T01:55:55.164Z,5.90
2022-10-20T01:59:15.021Z,5.43
2022-10-20T02:02:01.249Z,6.90
2022-10-20T02:04:42.202Z,6.93
2022-10-20T02:07:19.181Z,6.23
2022-10-20T02:09:51.049Z,6.10
2022-10-20T02:12:23.150Z,6.27
2022-10-20T02:14:53.272Z,5.80
2022-10-20T02:17:23.115Z,5.10
2022-10-20T02:19:54.067Z,6.03
2022-10-20T02:22:24.072Z,6.60
2022-10-20T02:24:52.338Z,6.53
2022-10-20T02:27:26.422Z,5.63
2022-10-20T02:29:59.661Z,6.07
2022-10-20T02:32:29.449Z,6.10
2022-10-20T02:34:57.535Z,6.47
2022-10-20T02:37:33.486Z,5.90
2022-10-20T02:40:02.659Z,5.60
2022-10-20T02:42:32.642Z,6.30
2022-10-20T02:45:05.703Z,6.03
2022-10-20T02:47:34.147Z,6.00
2022-10-20T02:50:10.290Z,5.23
2022-10-20T02:52:38.306Z,5.93
2022-10-20T02:55:07.926Z,5.87
2022-10-20T02:57:36.202Z,5.60
2022-10-20T03:00:08.933Z,6.30
2022-10-20T03:02:36.927Z,5.67
2022-10-20T03:05:05.360Z,5.40
2022-10-20T03:07:33.749Z,5.13
2022-10-20T03:10:16.638Z,6.27
2022-10-20T03:12:44.612Z,5.73
2022-10-20T03:15:15.065Z,5.97
2022-10-20T03:17:43.473Z,5.00
2022-10-20T03:20:12.072Z,6.07
2022-10-20T03:22:42.670Z,5.60
2022-10-20T03:25:11.111Z,5.53
2022-10-20T03:27:41.076Z,6.30
2022-10-20T03:30:13.101Z,5.53
2022-10-20T03:32:48.977Z,5.67
2022-10-20T03:35:17.143Z,5.60
2022-10-20T03:37:53.298Z,5.70
2022-10-20T03:40:22.158Z,4.93
2022-10-20T03:42:50.773Z,6.40
2022-10-20T03:45:19.014Z,5.63
2022-10-20T03:47:49.442Z,6.13
2022-10-20T03:50:17.589Z,5.60
2022-10-20T03:52:52.516Z,6.77
2022-10-20T03:55:26.258Z,5.50
2022-10-20T03:57:54.666Z,5.40
2022-10-20T04:00:25.485Z,5.83
2022-10-20T04:02:54.905Z,5.00
2022-10-20T04:05:24.043Z,5.90
2022-10-20T04:07:52.026Z,4.80
2022-10-20T04:10:20.868Z,6.67
2022-10-20T04:12:48.859Z,5.10
2022-10-20T04:15:18.846Z,5.20
2022-10-20T04:17:48.961Z,5.63
2022-10-20T04:20:19.351Z,5.30
2022-10-20T04:22:48.507Z,5.73
2022-10-20T04:25:16.598Z,6.27
2022-10-20T04:27:45.435Z,6.10
2022-10-20T04:30:16.433Z,5.70
2022-10-20T04:32:45.283Z,6.20
2022-10-20T04:35:15.380Z,6.30
2022-10-20T04:37:45.575Z,5.40
2022-10-20T04:40:16.194Z,5.10
2022-10-20T04:42:44.173Z,5.70
2022-10-20T04:45:12.642Z,5.63
2022-10-20T04:47:43.008Z,5.20
2022-10-20T04:50:11.811Z,6.50
2022-10-20T04:52:39.799Z,6.53
2022-10-20T04:55:10.884Z,5.20
2022-10-20T04:57:39.596Z,5.30
2022-10-20T05:00:08.740Z,5.43
2022-10-20T05:02:39.045Z,5.70
2022-10-20T05:05:07.822Z,5.80
2022-10-20T05:07:36.996Z,5.77
2022-10-20T05:10:06.516Z,5.70
2022-10-20T05:12:36.671Z,6.40
2022-10-20T05:15:12.832Z,6.30
2022-10-20T05:17:42.560Z,5.50
2022-10-20T05:20:11.492Z,5.30
2022-10-20T05:22:39.967Z,6.40
2022-10-20T05:25:31.485Z,5.70
2022-10-20T05:28:01.803Z,6.77
2022-10-20T05:30:30.200Z,5.97
2022-10-20T05:33:02.438Z,6.87
2022-10-20T05:35:31.654Z,6.13
2022-10-20T05:37:59.662Z,6.40
2022-10-20T05:40:30.900Z,6.40
2022-10-20T05:43:00.332Z,7.00
2022-10-20T05:45:31.119Z,6.27
2022-10-20T05:47:59.955Z,6.63
2022-10-20T05:50:29.987Z,5.87
2022-10-20T05:52:58.789Z,7.20
2022-10-20T05:55:26.834Z,6.20
2022-10-20T05:57:56.367Z,7.23
2022-10-20T06:00:31.336Z,8.70
2022-10-20T06:02:59.422Z,6.70
2022-10-20T06:05:27.862Z,6.70
2022-10-20T06:08:00.604Z,7.07
2022-10-20T06:10:29.421Z,6.53
2022-10-20T06:12:57.426Z,5.50
2022-10-20T06:15:29.650Z,6.83
2022-10-20T06:17:57.622Z,6.27
2022-10-20T06:20:28.373Z,7.37
2022-10-20T06:22:58.414Z,6.50
2022-10-20T06:25:26.466Z,6.20
2022-10-20T06:27:55.129Z,6.30
2022-10-20T06:30:25.949Z,7.17
2022-10-20T06:32:58.457Z,6.40
2022-10-20T06:35:29.686Z,7.60
2022-10-20T06:37:57.658Z,6.80
2022-10-20T06:40:26.342Z,6.00
2022-10-20T06:45:31.615Z,7.00
2022-10-20T06:48:00.981Z,5.77
2022-10-20T06:50:34.355Z,6.60
2022-10-20T06:53:02.355Z,6.90
2022-10-20T06:55:31.267Z,7.30
2022-10-20T06:57:59.251Z,6.17
2022-10-20T07:00:28.127Z,6.10
2022-10-20T07:02:56.189Z,6.30
2022-10-20T07:05:25.948Z,5.90
2022-10-20T07:07:56.412Z,7.50
2022-10-20T07:10:27.201Z,6.70
2022-10-20T07:12:56.441Z,8.00
2022-10-20T07:15:24.980Z,7.23
2022-10-20T07:17:52.939Z,6.90
2022-10-20T07:20:21.347Z,8.27
2022-10-20T07:22:53.036Z,7.20
2022-10-20T07:25:22.809Z,6.60
2022-10-20T07:27:51.122Z,6.30
2022-10-20T07:30:30.683Z,5.77
2022-10-20T07:32:59.175Z,5.50
2022-10-20T07:35:29.331Z,5.57
2022-10-20T07:37:58.668Z,6.00
2022-10-20T07:40:27.146Z,5.70
2022-10-20T07:42:55.419Z,6.23
2022-10-20T07:45:27.448Z,5.53
2022-10-20T07:47:55.627Z,4.80
2022-10-20T07:50:24.668Z,5.73
2022-10-20T07:52:53.765Z,5.40
2022-10-20T07:55:38.989Z,5.47
2022-10-20T07:58:09.964Z,4.70
2022-10-20T08:00:41.720Z,5.47
2022-10-20T08:03:17.975Z,4.40
2022-10-20T08:05:46.428Z,5.40
2022-10-20T08:08:14.945Z,5.03
2022-10-20T08:10:44.306Z,5.10
2022-10-20T08:13:13.708Z,5.10
2022-10-20T08:15:42.236Z,4.33
2022-10-20T08:18:10.347Z,5.43
2022-10-20T08:20:39.455Z,5.00
2022-10-20T08:23:09.907Z,5.67
2022-10-20T08:25:38.238Z,5.70
2022-10-20T08:28:08.274Z,4.93
2022-10-20T08:30:37.597Z,4.70
2022-10-20T08:33:07.987Z,4.07
2022-10-20T08:35:36.492Z,5.40
2022-10-20T08:38:07.384Z,4.50
2022-10-20T08:40:37.147Z,5.53
2022-10-20T08:43:10.339Z,5.10
2022-10-20T08:45:40.511Z,5.17
2022-10-20T08:48:13.684Z,5.63
2022-10-20T08:50:48.229Z,5.40
2022-10-20T08:53:16.372Z,4.93
2022-10-20T08:55:46.479Z,5.20
2022-10-20T08:58:17.890Z,5.20
2022-10-20T09:00:49.824Z,5.70
2022-10-20T09:03:21.744Z,5.23
2022-10-20T09:05:53.742Z,5.07
2022-10-20T09:08:24.779Z,5.30
2022-10-20T09:10:55.543Z,5.40
2022-10-20T09:13:32.764Z,5.63
2022-10-20T09:16:05.873Z,5.17
2022-10-20T09:18:37.931Z,5.50
2022-10-20T09:21:09.887Z,5.37
2022-10-20T09:23:42.147Z,5.40
2022-10-20T09:26:54.237Z,5.60
2022-10-20T09:29:36.138Z,4.80
2022-10-20T09:32:34.035Z,5.17
2022-10-20T09:35:12.015Z,4.20
2022-10-20T09:37:41.338Z,5.27
2022-10-20T09:40:16.090Z,5.60
2022-10-20T09:42:51.864Z,5.37
2022-10-20T09:45:25.985Z,4.90
2022-10-20T09:47:57.769Z,5.90
2022-10-20T09:50:36.993Z,5.27
2022-10-20T09:53:10.372Z,4.47
2022-10-20T09:55:46.449Z,4.93
2022-10-20T09:58:22.331Z,5.50
2022-10-20T10:01:02.138Z,5.50
2022-10-20T10:03:30.795Z,5.70
2022-10-20T10:06:00.272Z,5.77
2022-10-20T10:08:41.895Z,5.50
2022-10-20T10:11:17.006Z,5.67
2022-10-20T10:13:49.953Z,5.37
2022-10-20T10:16:22.240Z,5.20
2022-10-20T10:18:59.197Z,5.53
2022-10-20T10:21:27.567Z,5.17
2022-10-20T10:23:57.732Z,5.87
2022-10-20T10:26:45.922Z,4.70
2022-10-20T10:29:25.636Z,6.13
2022-10-20T10:31:59.839Z,5.50
2022-10-20T10:34:48.974Z,4.87
2022-10-20T10:39:55.531Z,5.10
2022-10-20T10:42:49.135Z,5.30
2022-10-20T10:45:41.098Z,6.73
2022-10-20T10:48:47.563Z,5.60
2022-10-20T10:51:25.675Z,4.80
2022-10-20T10:54:10.798Z,5.60
2022-10-20T10:56:49.946Z,5.53
2022-10-20T10:59:23.618Z,5.60
2022-10-20T11:02:25.456Z,5.43
2022-10-20T11:05:24.637Z,6.00
2022-10-20T11:08:04.853Z,5.10
2022-10-20T11:10:40.817Z,6.17
2022-10-20T11:13:27.099Z,6.00
2022-10-20T11:16:25.155Z,6.40
2022-10-20T11:19:17.959Z,6.67
2022-10-20T11:22:02.913Z,5.93
2022-10-20T11:24:46.977Z,7.00
2022-10-20T11:27:17.496Z,7.50
2022-10-20T11:29:48.608Z,6.57
2022-10-20T11:32:28.328Z,6.60
2022-10-20T11:35:04.733Z,6.80
2022-10-20T11:37:43.501Z,5.87
2022-10-20T11:40:21.048Z,6.80
2022-10-20T11:42:56.156Z,7.07
2022-10-20T11:45:39.320Z,7.10
2022-10-20T11:48:15.725Z,7.50
2022-10-20T11:53:59.075Z,6.53
2022-10-20T11:56:57.680Z,6.67
2022-10-20T11:59:57.657Z,6.33
2022-10-20T12:02:59.147Z,6.70
2022-10-20T12:05:47.874Z,6.90
2022-10-20T12:08:32.219Z,7.03
2022-10-20T12:11:10.152Z,6.80
2022-10-20T12:13:51.686Z,6.93
2022-10-20T12:16:53.099Z,7.93
2022-10-20T12:19:31.776Z,6.97
2022-10-20T12:22:02.209Z,6.80
2022-10-20T12:24:34.009Z,8.20
2022-10-20T12:27:20.416Z,7.83
2022-10-20T12:30:36.345Z,7.43
2022-10-20T12:33:22.507Z,7.40
2022-10-20T12:36:25.080Z,8.10
2022-10-20T12:38:55.220Z,8.03
2022-10-20T12:41:29.752Z,7.40
2022-10-20T12:44:02.707Z,8.30
2022-10-20T12:46:34.236Z,8.20
2022-10-20T12:49:12.120Z,7.17
2022-10-20T12:51:51.937Z,8.03
2022-10-20T12:54:25.410Z,7.43
2022-10-20T12:57:00.231Z,9.30
2022-10-20T12:59:46.469Z,8.43
2022-10-20T13:03:00.324Z,6.73
2022-10-20T13:05:50.267Z,7.80
2022-10-20T13:08:24.356Z,8.50
2022-10-20T13:10:54.366Z,7.70
2022-10-20T13:13:41.919Z,7.97
2022-10-20T13:16:22.922Z,8.43
2022-10-20T13:18:57.708Z,8.60
2022-10-20T13:21:35.655Z,8.60
2022-10-20T13:24:10.595Z,8.10
2022-10-20T13:26:50.195Z,8.40
2022-10-20T13:29:26.632Z,7.97
2022-10-20T13:32:14.227Z,8.50
2022-10-20T13:34:49.914Z,7.60
2022-10-20T13:37:35.556Z,8.97
2022-10-20T13:40:14.661Z,7.43
2022-10-20T13:42:56.034Z,7.73
2022-10-20T13:45:34.988Z,7.97
2022-10-20T13:48:15.411Z,7.60
2022-10-20T13:50:45.215Z,9.97
2022-10-20T13:53:23.201Z,7.87
2022-10-20T13:56:00.162Z,8.57
2022-10-20T13:58:28.681Z,9.97
2022-10-20T14:00:59.945Z,8.50
2022-10-20T14:03:29.070Z,8.70
2022-10-20T14:05:59.096Z,8.10
2022-10-20T14:08:30.937Z,7.30
2022-10-20T14:11:13.335Z,8.87
2022-10-20T14:13:41.462Z,8.00
2022-10-20T14:16:19.271Z,7.53
2022-10-20T14:19:01.692Z,8.30
2022-10-20T14:21:30.853Z,8.50
2022-10-20T14:24:07.326Z,8.20
2022-10-20T14:26:37.908Z,11.23
2022-10-20T14:29:08.528Z,8.70
2022-10-20T14:31:42.192Z,8.37
2022-10-20T14:34:23.272Z,7.50
2022-10-20T14:36:54.351Z,9.20
2022-10-20T14:39:36.719Z,8.03
2022-10-20T14:42:21.066Z,7.47
2022-10-20T14:44:51.057Z,8.70
2022-10-20T14:47:28.462Z,7.40
2022-10-20T14:49:59.127Z,7.30
2022-10-20T14:52:31.474Z,7.80
2022-10-20T14:55:01.269Z,6.70
2022-10-20T14:57:40.524Z,8.37
2022-10-20T15:00:39.433Z,8.00
2022-10-20T15:03:08.496Z,7.37
2022-10-20T15:05:41.283Z,7.70
2022-10-20T15:08:23.710Z,6.53
2022-10-20T15:10:54.907Z,7.10
2022-10-20T15:13:31.952Z,8.20
2022-10-20T15:16:02.993Z,7.40
2022-10-20T15:18:33.446Z,6.43
2022-10-20T15:21:09.051Z,8.70
2022-10-20T15:23:40.061Z,7.37
2022-10-20T15:26:14.959Z,7.60
2022-10-20T15:28:45.861Z,7.87
2022-10-20T15:31:21.067Z,7.73
2022-10-20T15:33:49.556Z,7.13
2022-10-20T15:36:28.898Z,7.70
2022-10-20T15:38:57.900Z,7.33
2022-10-20T15:41:30.320Z,7.23
2022-10-20T15:44:03.383Z,7.90
2022-10-20T15:46:32.236Z,8.67
2022-10-20T15:51:46.024Z,9.00
2022-10-20T15:54:15.698Z,8.33
2022-10-20T15:56:47.597Z,8.53
2022-10-20T15:59:18.378Z,7.57
2022-10-20T16:01:46.469Z,8.80
2022-10-20T16:04:30.271Z,9.00
2022-10-20T16:07:05.305Z,7.80
2022-10-20T16:09:33.660Z,8.23
2022-10-20T16:12:03.437Z,8.03
2022-10-20T16:14:34.663Z,7.50
2022-10-20T16:17:05.823Z,8.17
2022-10-20T16:19:33.809Z,8.00
2022-10-20T16:22:04.459Z,7.77
2022-10-20T16:24:33.891Z,7.50
2022-10-20T16:27:05.844Z,7.13
2022-10-20T16:29:34.936Z,8.27
2022-10-20T16:32:02.920Z,8.47
2022-10-20T16:34:31.574Z,6.60
2022-10-20T16:37:00.121Z,7.77
2022-10-20T16:39:28.410Z,7.50
2022-10-20T16:41:58.594Z,7.37
2022-10-20T16:44:33.832Z,7.80
2022-10-20T16:47:04.279Z,7.70
2022-10-20T16:49:33.223Z,8.00
2022-10-20T16:52:01.656Z,8.07
2022-10-20T16:54:29.782Z,8.57
2022-10-20T16:57:01.079Z,9.40
2022-10-20T16:59:30.451Z,9.13
2022-10-20T17:01:58.811Z,8.53
2022-10-20T17:04:28.641Z,7.90
2022-10-20T17:06:56.848Z,8.73
2022-10-20T17:09:25.338Z,7.30
2022-10-20T17:11:54.304Z,7.90
2022-10-20T17:14:26.905Z,7.93
2022-10-20T17:16:59.778Z,8.53
2022-10-20T17:19:27.932Z,8.23
2022-10-20T17:21:57.008Z,8.07
2022-10-20T17:24:25.749Z,8.60
2022-10-20T17:26:53.789Z,8.13
2022-10-20T17:29:26.172Z,7.77
2022-10-20T17:31:59.048Z,7.83
2022-10-20T17:34:29.607Z,8.30
2022-10-20T17:36:59.896Z,8.30
2022-10-20T17:39:28.962Z,7.63
2022-10-20T17:41:59.393Z,8.13
2022-10-20T17:44:27.537Z,7.70
2022-10-20T17:46:59.023Z,7.50
2022-10-20T17:49:32.403Z,7.73
2022-10-20T17:52:00.588Z,7.57
2022-10-20T17:54:28.555Z,7.93
2022-10-20T17:56:56.925Z,6.80
2022-10-20T17:59:25.425Z,7.30
2022-10-20T18:01:56.670Z,7.77
2022-10-20T18:04:31.212Z,8.10
2022-10-20T18:06:59.531Z,7.67
2022-10-20T18:09:28.616Z,7.20
2022-10-20T18:12:07.175Z,8.10
2022-10-20T18:14:35.787Z,7.33
2022-10-20T18:17:03.843Z,8.50
2022-10-20T18:19:35.997Z,8.10
2022-10-20T18:22:05.728Z,7.17
2022-10-20T18:24:36.200Z,7.40
2022-10-20T18:27:06.319Z,7.47
2022-10-20T18:29:34.776Z,7.60
2022-10-20T18:32:03.736Z,9.00
2022-10-20T18:34:33.648Z,8.53
2022-10-20T18:37:03.394Z,7.50
2022-10-20T18:39:35.627Z,6.77
2022-10-20T18:42:05.953Z,9.10
2022-10-20T18:44:36.033Z,7.33
2022-10-20T18:47:07.148Z,6.77
2022-10-20T18:49:36.719Z,8.17
2022-10-20T18:52:07.853Z,7.17
2022-10-20T18:54:36.022Z,7.67
2022-10-20T18:57:09.136Z,7.90
2022-10-20T18:59:37.172Z,7.80
2022-10-20T19:02:08.475Z,7.23
2022-10-20T19:04:37.862Z,7.70
2022-10-20T19:07:09.500Z,6.90
2022-10-20T19:09:42.228Z,6.77
2022-10-20T19:12:11.434Z,7.30
2022-10-20T19:14:39.385Z,7.00
2022-10-20T19:17:07.808Z,8.10
2022-10-20T19:19:41.612Z,6.50
2022-10-20T19:22:12.808Z,7.03
2022-10-20T19:24:42.657Z,6.90
2022-10-20T19:27:27.502Z,7.63
2022-10-20T19:29:58.898Z,7.47
2022-10-20T19:32:27.210Z,6.40
2022-10-20T19:34:56.993Z,6.67
2022-10-20T19:37:25.261Z,8.10
2022-10-20T19:39:53.258Z,7.80
2022-10-20T19:42:21.811Z,8.27
2022-10-20T19:44:52.358Z,8.07
2022-10-20T19:47:23.116Z,6.53
2022-10-20T19:49:51.120Z,7.30
2022-10-20T19:52:21.245Z,7.90
2022-10-20T19:54:49.968Z,8.23
2022-10-20T19:57:17.998Z,8.43
2022-10-20T19:59:48.765Z,7.03
2022-10-20T20:02:17.756Z,6.83
2022-10-20T20:04:46.648Z,6.10
2022-10-20T20:09:52.011Z,7.53
2022-10-20T20:12:27.793Z,7.90
2022-10-20T20:14:58.589Z,7.43
2022-10-20T20:17:26.922Z,9.13
2022-10-20T20:19:58.512Z,7.57
2022-10-20T20:22:26.830Z,7.20
2022-10-20T20:25:00.110Z,7.30
2022-10-20T20:27:30.821Z,9.17
2022-10-20T20:29:59.531Z,8.10
2022-10-20T20:32:30.059Z,7.50
2022-10-20T20:34:59.947Z,5.27
2022-10-20T20:37:28.042Z,6.43
2022-10-20T20:40:02.377Z,6.50
2022-10-20T20:42:30.414Z,5.80
2022-10-20T20:44:58.650Z,5.53
2022-10-20T20:47:27.431Z,4.70
2022-10-20T20:49:55.424Z,4.20
2022-10-20T20:52:25.523Z,4.83
2022-10-20T20:54:54.099Z,5.00
2022-10-20T20:57:24.673Z,3.57
2022-10-20T20:59:53.102Z,4.63
2022-10-20T21:02:26.143Z,4.60
2022-10-20T21:05:01.522Z,4.63
2022-10-20T21:07:32.344Z,4.50
2022-10-20T21:10:01.928Z,4.40
2022-10-20T21:12:34.641Z,5.47
2022-10-20T21:15:03.747Z,3.67
2022-10-20T21:17:32.433Z,4.30
2022-10-20T21:20:00.684Z,5.40
2022-10-20T21:22:30.950Z,4.30
2022-10-20T21:24:59.802Z,3.90
2022-10-20T21:27:27.820Z,4.70
2022-10-20T21:29:58.032Z,5.33
2022-10-20T21:32:27.006Z,5.20
2022-10-20T21:34:57.216Z,5.10
2022-10-20T21:37:26.185Z,3.93
2022-10-20T21:39:54.510Z,4.63
2022-10-20T21:42:22.487Z,4.90
2022-10-20T21:44:51.422Z,4.90
2022-10-20T21:47:20.756Z,5.10
2022-10-20T21:49:48.768Z,5.20
2022-10-20T21:52:20.040Z,5.60
2022-10-20T21:54:48.052Z,5.40
2022-10-20T21:57:16.591Z,5.10
2022-10-20T21:59:47.155Z,5.00
2022-10-20T22:02:17.533Z,4.87
2022-10-20T22:04:49.992Z,6.53
2022-10-20T22:07:18.034Z,5.73
2022-10-20T22:09:46.200Z,4.93
2022-10-20T22:12:18.233Z,5.83
2022-10-20T22:14:47.341Z,4.97
2022-10-20T22:17:18.726Z,5.60
2022-10-20T22:19:50.176Z,6.40
2022-10-20T22:22:19.090Z,6.50
2022-10-20T22:24:56.562Z,5.33
2022-10-20T22:27:41.851Z,7.33
2022-10-20T22:30:11.815Z,7.50
2022-10-20T22:32:42.508Z,6.43
2022-10-20T22:35:19.687Z,6.20
2022-10-20T22:37:48.843Z,5.93
2022-10-20T22:40:16.990Z,6.17
2022-10-20T22:42:51.593Z,5.00
2022-10-20T22:45:19.645Z,5.10
2022-10-20T22:47:47.600Z,6.37
2022-10-20T22:50:19.348Z,5.77
2022-10-20T22:52:47.346Z,6.40
2022-10-20T22:55:19.104Z,5.23
2022-10-20T22:57:48.741Z,4.83
2022-10-20T23:00:17.964Z,5.10
2022-10-20T23:02:47.000Z,5.90
2022-10-20T23:05:19.477Z,6.00
2022-10-20T23:07:54.073Z,6.23
2022-10-20T23:10:22.108Z,6.67
2022-10-20T23:12:52.123Z,6.20
2022-10-20T23:15:23.306Z,5.50
2022-10-20T23:17:51.811Z,5.50
2022-10-20T23:20:23.812Z,6.17
2022-10-20T23:22:51.798Z,6.20
2022-10-20T23:25:29.637Z,6.67
2022-10-20T23:27:57.650Z,7.37
2022-10-20T23:30:25.819Z,6.73
2022-10-20T23:35:39.079Z,8.87
2022-10-20T23:38:09.103Z,8.33
2022-10-20T23:40:40.590Z,9.27
2022-10-20T23:43:09.512Z,10.27
2022-10-20T23:45:39.545Z,10.53
2022-10-20T23:50:55.078Z,9.20
2022-10-20T23:53:26.147Z,10.93
2022-10-20T23:55:55.230Z,10.10
2022-10-20T23:58:25.104Z,10.70
